»·PEaware :: N33734 KSNS-KMOD

N33734 :: KSNS-KMOD

FLIGHT INFORMATION

Flight Status: Arrived
Operator: Privately registered:
United States
More flights under this callsign
Pilot: Hilton Head Flyers (3548)
Aircraft: PIPER PA-28 CHEROKEE ARCHER
(PA28)
More flights by this aircraft type
Origin: KSNS Salinas Mun
United States
Destination: KMOD Modesto City-Co-Sham
United States
More flights between these airports :: More routes between these airports
Route: +SNS V111 MOD
File this flight plan on PilotEdge
Remarks: STUDENT
Altitude:
(Current/Filed)
8,000ft
Speed:
(Current/Filed)
110kts
Departed: 23-Aug-18 01:42 PM
Arrived: 23-Aug-18 02:36 PM
Distance/Time
Traveled:
66nm/0:54
Distance/Time
To Go:
Arrived

Flight Plot

Page will automatically refresh every two minutes.


Map Options




Map Legend


Flown Route
Filed Route
Departure Airport
Arrival Airport
Navaid (VOR, NDB)
Fix

Horizontal Profiles

Position Reports

Time Latitude Longitude Heading Altitude Ground
Speed
23-Aug-18 13:34 37.675510 -121.295589 317 61ft 0kts
23-Aug-18 13:35 37.675510 -121.295589 317 61ft 0kts
23-Aug-18 13:36 36.657523 -121.601367 327 66ft 0kts
23-Aug-18 13:37 36.657523 -121.601367 327 66ft 0kts
23-Aug-18 13:38 36.657523 -121.601367 327 66ft 0kts
23-Aug-18 13:39 36.657523 -121.601367 327 66ft 0kts
23-Aug-18 13:40 36.657523 -121.601367 327 66ft 0kts
23-Aug-18 13:41 36.657523 -121.601367 327 66ft 0kts
23-Aug-18 13:42 36.657523 -121.601367 327 66ft 0kts
23-Aug-18 13:43 36.663155 -121.605732 327 129ft 81kts
23-Aug-18 13:44 36.682915 -121.621394 339 908ft 87kts
23-Aug-18 13:45 36.702949 -121.607610 355 1637ft 90kts
23-Aug-18 13:46 36.726367 -121.599418 29 2365ft 88kts
23-Aug-18 13:47 36.748337 -121.584062 29 3041ft 91kts
23-Aug-18 13:48 36.770575 -121.568508 29 3687ft 92kts
23-Aug-18 13:49 36.793070 -121.552774 29 4306ft 93kts
23-Aug-18 13:50 36.815887 -121.536813 29 4894ft 94kts
23-Aug-18 13:51 36.838881 -121.520722 29 5449ft 95kts
23-Aug-18 13:52 36.862063 -121.504497 29 5975ft 96kts
23-Aug-18 13:53 36.885439 -121.488120 30 6474ft 97kts
23-Aug-18 13:54 36.908631 -121.470595 31 6930ft 97kts
23-Aug-18 13:55 36.933748 -121.451586 30 6959ft 108kts
23-Aug-18 13:56 36.959481 -121.432130 31 6910ft 107kts
23-Aug-18 13:57 36.984551 -121.413157 30 6937ft 103kts
23-Aug-18 13:58 37.009356 -121.394367 30 6957ft 104kts
23-Aug-18 13:59 37.034260 -121.375498 30 6941ft 107kts
23-Aug-18 14:00 37.059748 -121.356186 30 6908ft 106kts
23-Aug-18 14:01 37.084872 -121.337132 30 6913ft 105kts
23-Aug-18 14:02 37.109882 -121.318158 30 6930ft 104kts
23-Aug-18 14:03 37.134807 -121.299241 30 6939ft 104kts
23-Aug-18 14:04 37.159621 -121.280396 30 6965ft 104kts
23-Aug-18 14:05 37.184353 -121.261602 30 6994ft 103kts
23-Aug-18 14:06 37.200737 -121.233383 68 6976ft 106kts
23-Aug-18 14:07 37.211265 -121.198623 68 6959ft 105kts
23-Aug-18 14:08 37.221747 -121.164025 68 6804ft 109kts
23-Aug-18 14:09 37.231965 -121.128838 69 6239ft 106kts
23-Aug-18 14:10 37.241635 -121.093854 70 5696ft 105kts
23-Aug-18 14:11 37.251040 -121.059329 70 5179ft 104kts
23-Aug-18 14:12 37.260211 -121.025605 70 4965ft 99kts
23-Aug-18 14:13 37.269263 -120.992258 70 4947ft 100kts
23-Aug-18 14:14 37.280837 -120.960288 60 4930ft 101kts
23-Aug-18 14:15 37.294016 -120.929398 61 4937ft 100kts
23-Aug-18 14:16 37.307026 -120.898427 62 4940ft 100kts
23-Aug-18 14:17 37.320055 -120.867404 62 4943ft 100kts
23-Aug-18 14:18 37.333494 -120.835457 62 4611ft 105kts
23-Aug-18 14:19 37.347183 -120.802967 62 4195ft 103kts
23-Aug-18 14:20 37.360803 -120.770610 62 3758ft 105kts
23-Aug-18 14:21 37.374813 -120.738546 62 3354ft 103kts
23-Aug-18 14:22 37.394347 -120.713705 35 3002ft 101kts
23-Aug-18 14:23 37.415696 -120.694789 35 2977ft 91kts
23-Aug-18 14:24 37.437109 -120.675793 35 2978ft 94kts
23-Aug-18 14:25 37.459569 -120.659303 352 2949ft 98kts
23-Aug-18 14:26 37.477413 -120.682281 308 3007ft 93kts
23-Aug-18 14:27 37.493499 -120.708578 305 3014ft 95kts
23-Aug-18 14:28 37.507231 -120.733112 305 3015ft 80kts
23-Aug-18 14:29 37.519977 -120.755872 305 2959ft 79kts
23-Aug-18 14:30 37.534836 -120.782432 305 2925ft 95kts
23-Aug-18 14:31 37.550735 -120.810926 305 2546ft 102kts
23-Aug-18 14:32 37.566150 -120.840186 299 2073ft 101kts
23-Aug-18 14:33 37.580708 -120.869784 312 1609ft 100kts
23-Aug-18 14:34 37.596084 -120.897507 303 1018ft 91kts
23-Aug-18 14:35 37.609965 -120.923261 304 482ft 81kts
23-Aug-18 14:36 37.621577 -120.944981 304 81ft 63kts
23-Aug-18 14:37 37.624175 -120.949856 313 80ft 0kts
23-Aug-18 14:38 37.624175 -120.949856 313 80ft 0kts
23-Aug-18 14:39 37.624175 -120.949856 313 80ft 0kts
23-Aug-18 14:40 37.624175 -120.949856 313 80ft 0kts
23-Aug-18 14:41 37.624175 -120.949856 313 80ft 0kts
23-Aug-18 14:42 37.624175 -120.949856 313 80ft 0kts
23-Aug-18 14:43 37.624175 -120.949856 313 80ft 0kts
23-Aug-18 14:44 37.624175 -120.949856 313 80ft 0kts
23-Aug-18 14:45 37.624175 -120.949856 313 80ft 0kts
23-Aug-18 14:46 37.624175 -120.949856 313 80ft 0kts
23-Aug-18 14:47 37.624175 -120.949856 313 80ft 0kts
23-Aug-18 14:48 37.624175 -120.949856 313 80ft 0kts
23-Aug-18 14:49 37.624175 -120.949856 313 80ft 0kts
23-Aug-18 14:50 37.624175 -120.949856 313 80ft 0kts
23-Aug-18 14:51 37.624175 -120.949856 313 80ft 0kts

Navigation Log

Ident Type
Flight plan parsing failed, navigation log unavailable